createdAt,value
2023-02-27T00:01:28.899Z,17.20
2023-02-27T00:03:57.870Z,18.48
2023-02-27T00:06:24.493Z,17.77
2023-02-27T00:08:53.387Z,15.25
2023-02-27T00:11:20.356Z,15.68
2023-02-27T00:13:51.215Z,14.35
2023-02-27T00:16:18.027Z,17.42
2023-02-27T00:18:44.695Z,16.00
2023-02-27T00:21:11.437Z,15.80
2023-02-27T00:23:38.357Z,15.68
2023-02-27T00:26:05.422Z,15.38
2023-02-27T00:28:35.170Z,14.77
2023-02-27T00:31:01.965Z,14.80
2023-02-27T00:33:30.457Z,17.15
2023-02-27T00:35:59.374Z,14.93
2023-02-27T00:38:26.465Z,17.20
2023-02-27T00:40:57.615Z,16.13
2023-02-27T00:43:24.480Z,15.25
2023-02-27T00:45:51.028Z,15.57
2023-02-27T00:48:20.817Z,13.93
2023-02-27T00:50:47.622Z,14.98
2023-02-27T00:53:14.273Z,15.02
2023-02-27T00:55:40.907Z,15.40
2023-02-27T00:58:07.633Z,13.68
2023-02-27T01:00:34.341Z,17.88
2023-02-27T01:03:03.954Z,15.32
2023-02-27T01:05:31.065Z,16.52
2023-02-27T01:08:00.042Z,17.08
2023-02-27T01:10:29.164Z,16.23
2023-02-27T01:12:55.819Z,17.45
2023-02-27T01:15:24.812Z,15.75
2023-02-27T01:17:51.596Z,17.38
2023-02-27T01:20:20.769Z,16.63
2023-02-27T01:22:47.461Z,17.00
2023-02-27T01:25:14.131Z,15.38
2023-02-27T01:27:41.302Z,15.68
2023-02-27T01:30:11.335Z,16.40
2023-02-27T01:32:38.348Z,14.07
2023-02-27T01:35:05.461Z,16.05
2023-02-27T01:37:34.523Z,13.20
2023-02-27T01:40:01.145Z,19.92
2023-02-27T01:42:33.780Z,17.45
2023-02-27T01:45:12.956Z,18.13
2023-02-27T01:47:48.003Z,16.80
2023-02-27T01:50:16.043Z,15.95
2023-02-27T01:52:49.373Z,14.75
2023-02-27T01:55:16.457Z,15.63
2023-02-27T01:57:46.470Z,16.02
2023-02-27T02:00:14.495Z,19.15
2023-02-27T02:02:56.580Z,17.55
2023-02-27T02:05:24.053Z,18.92
2023-02-27T02:07:54.302Z,21.40
2023-02-27T02:10:22.434Z,20.35
2023-02-27T02:12:49.970Z,21.40
2023-02-27T02:15:17.246Z,19.70
2023-02-27T02:17:53.333Z,22.92
2023-02-27T02:20:39.661Z,19.67
2023-02-27T02:23:31.819Z,19.02
2023-02-27T02:26:52.407Z,19.52
2023-02-27T02:29:59.743Z,19.35
2023-02-27T02:33:07.618Z,19.38
2023-02-27T02:36:01.266Z,20.80
2023-02-27T02:39:09.283Z,20.58
2023-02-27T02:41:58.940Z,18.45
2023-02-27T02:45:02.195Z,20.65
2023-02-27T02:47:47.545Z,21.25
2023-02-27T02:50:36.571Z,20.08
2023-02-27T02:53:58.324Z,20.55
2023-02-27T02:56:55.579Z,21.75
2023-02-27T02:59:33.712Z,24.60
2023-02-27T03:02:08.511Z,18.13
2023-02-27T03:04:44.178Z,19.00
2023-02-27T03:07:23.998Z,16.67
2023-02-27T03:10:00.110Z,17.80
2023-02-27T03:12:32.790Z,19.20
2023-02-27T03:15:20.133Z,16.08
2023-02-27T03:17:53.388Z,16.75
2023-02-27T03:20:33.638Z,17.10
2023-02-27T03:23:07.162Z,14.55
2023-02-27T03:25:41.509Z,16.70
2023-02-27T03:28:11.355Z,16.10
2023-02-27T03:30:50.590Z,16.25
2023-02-27T03:33:35.982Z,14.45
2023-02-27T03:36:14.954Z,14.57
2023-02-27T03:39:24.190Z,14.55
2023-02-27T03:42:16.707Z,14.30
2023-02-27T03:45:06.101Z,17.73
2023-02-27T03:47:36.058Z,15.35
2023-02-27T03:50:02.776Z,16.25
2023-02-27T03:52:30.214Z,16.13
2023-02-27T03:55:02.021Z,14.00
2023-02-27T03:57:29.311Z,16.23
2023-02-27T03:59:59.253Z,12.55
2023-02-27T04:02:28.046Z,12.00
2023-02-27T04:04:57.803Z,15.50
2023-02-27T04:07:41.899Z,12.52
2023-02-27T04:10:14.624Z,10.75
2023-02-27T04:12:57.929Z,12.57
2023-02-27T04:15:55.611Z,11.43
2023-02-27T04:18:36.374Z,11.18
2023-02-27T04:21:33.712Z,12.13
2023-02-27T04:24:17.682Z,11.50
2023-02-27T04:26:51.735Z,10.93
2023-02-27T04:29:27.990Z,11.65
2023-02-27T04:32:07.071Z,10.20
2023-02-27T04:34:44.030Z,9.88
2023-02-27T04:37:20.220Z,9.35
2023-02-27T04:39:57.952Z,11.25
2023-02-27T04:42:33.933Z,10.07
2023-02-27T04:45:04.833Z,10.13
2023-02-27T04:47:39.770Z,8.75
2023-02-27T04:50:17.163Z,7.80
2023-02-27T04:52:50.269Z,8.60
2023-02-27T04:55:39.129Z,11.35
2023-02-27T04:58:12.740Z,7.85
2023-02-27T05:00:52.473Z,8.95
2023-02-27T05:03:25.428Z,16.25
2023-02-27T05:05:56.964Z,8.88
2023-02-27T05:08:51.354Z,8.18
2023-02-27T05:11:37.170Z,6.65
2023-02-27T05:14:31.012Z,6.90
2023-02-27T05:17:14.901Z,7.32
2023-02-27T05:19:57.585Z,7.70
2023-02-27T05:22:43.171Z,6.20
2023-02-27T05:25:26.646Z,6.40
2023-02-27T05:28:06.479Z,10.10
2023-02-27T05:31:19.090Z,6.78
2023-02-27T05:33:55.722Z,8.20
2023-02-27T05:36:28.744Z,6.07
2023-02-27T05:39:09.025Z,9.00
2023-02-27T05:41:47.949Z,9.18
2023-02-27T05:44:21.899Z,9.57
2023-02-27T05:46:59.730Z,8.38
2023-02-27T05:49:43.719Z,8.73
2023-02-27T05:52:15.240Z,10.55
2023-02-27T05:54:51.838Z,9.15
2023-02-27T05:57:27.183Z,9.82
2023-02-27T06:00:13.854Z,11.77
2023-02-27T06:02:42.494Z,9.98
2023-02-27T06:05:09.520Z,13.73
2023-02-27T06:07:36.876Z,9.52
2023-02-27T06:10:06.415Z,6.88
2023-02-27T06:12:34.911Z,7.10
2023-02-27T06:15:04.156Z,7.10
2023-02-27T06:17:36.207Z,6.57
2023-02-27T06:20:03.452Z,6.55
2023-02-27T06:22:56.347Z,7.93
2023-02-27T06:25:37.479Z,8.70
2023-02-27T06:28:14.774Z,9.38
2023-02-27T06:30:46.587Z,8.00
2023-02-27T06:33:13.614Z,16.33
2023-02-27T06:35:40.262Z,10.90
2023-02-27T06:38:07.148Z,10.15
2023-02-27T06:40:39.346Z,11.68
2023-02-27T06:43:09.400Z,11.70
2023-02-27T06:45:38.306Z,12.93
2023-02-27T06:48:08.132Z,10.43
2023-02-27T06:50:34.901Z,12.40
2023-02-27T06:53:01.490Z,13.07
2023-02-27T06:55:30.057Z,10.25
2023-02-27T06:57:56.817Z,10.57
2023-02-27T07:00:32.243Z,10.90
2023-02-27T07:02:59.017Z,9.13
2023-02-27T07:05:28.645Z,7.15
2023-02-27T07:07:58.722Z,6.10
2023-02-27T07:10:28.407Z,6.88
2023-02-27T07:13:00.797Z,7.10
2023-02-27T07:15:32.370Z,8.35
2023-02-27T07:18:01.651Z,7.43
2023-02-27T07:20:31.447Z,6.50
2023-02-27T07:22:58.541Z,7.05
2023-02-27T07:25:25.372Z,15.65
2023-02-27T07:28:01.948Z,8.75
2023-02-27T07:30:41.785Z,9.80
2023-02-27T07:33:14.731Z,9.80
2023-02-27T07:35:41.560Z,12.23
2023-02-27T07:38:13.924Z,14.00
2023-02-27T07:40:42.714Z,10.23
2023-02-27T07:43:12.680Z,11.70
2023-02-27T07:45:41.202Z,11.57
2023-02-27T07:48:07.929Z,11.52
2023-02-27T07:50:40.660Z,13.38
2023-02-27T07:53:08.075Z,11.80
2023-02-27T07:55:35.862Z,11.23
2023-02-27T07:58:05.328Z,11.57
2023-02-27T08:00:32.561Z,14.23
2023-02-27T08:03:00.769Z,14.05
2023-02-27T08:05:30.660Z,14.80
2023-02-27T08:08:04.178Z,12.13
2023-02-27T08:10:31.369Z,14.02
2023-02-27T08:13:07.395Z,13.77
2023-02-27T08:15:34.179Z,13.00
2023-02-27T08:18:03.916Z,24.40
2023-02-27T08:20:31.801Z,21.23
2023-02-27T08:22:58.751Z,12.93
2023-02-27T08:25:25.453Z,16.45
2023-02-27T08:27:52.454Z,11.48
2023-02-27T08:30:19.303Z,8.43
2023-02-27T08:32:46.762Z,14.02
2023-02-27T08:35:13.830Z,9.75
2023-02-27T08:37:40.719Z,8.10
2023-02-27T08:40:09.329Z,8.93
2023-02-27T08:42:38.600Z,9.43
2023-02-27T08:45:05.629Z,11.27
2023-02-27T08:47:37.230Z,11.20
2023-02-27T08:50:07.657Z,12.75
2023-02-27T08:52:37.040Z,10.43
2023-02-27T08:58:13.040Z,10.65
2023-02-27T09:00:44.812Z,12.95
2023-02-27T09:03:13.979Z,11.73
2023-02-27T09:05:43.100Z,8.55
2023-02-27T09:08:10.344Z,9.05
2023-02-27T09:10:37.297Z,7.78
2023-02-27T09:13:10.383Z,8.88
2023-02-27T09:15:42.968Z,8.93
2023-02-27T09:18:12.967Z,7.70
2023-02-27T09:20:42.116Z,9.55
2023-02-27T09:23:09.279Z,8.40
2023-02-27T09:25:36.167Z,13.02
2023-02-27T09:28:03.368Z,12.30
2023-02-27T09:30:31.946Z,10.68
2023-02-27T09:33:00.674Z,7.85
2023-02-27T09:35:27.515Z,10.48
2023-02-27T09:37:56.678Z,9.13
2023-02-27T09:40:32.737Z,12.75
2023-02-27T09:43:11.772Z,10.45
2023-02-27T09:45:42.553Z,12.77
2023-02-27T09:48:42.998Z,11.77
2023-02-27T09:51:10.441Z,19.83
2023-02-27T09:53:43.092Z,8.30
2023-02-27T09:56:51.338Z,9.52
2023-02-27T09:59:46.748Z,6.88
2023-02-27T10:06:18.788Z,8.68
2023-02-27T10:09:06.936Z,7.30
2023-02-27T10:11:43.053Z,5.88
2023-02-27T10:15:18.447Z,6.10
2023-02-27T10:17:51.283Z,7.50
2023-02-27T10:20:26.444Z,7.43
2023-02-27T10:22:56.786Z,5.35
2023-02-27T10:25:31.781Z,5.60
2023-02-27T10:28:11.143Z,7.03
2023-02-27T10:30:38.062Z,6.85
2023-02-27T10:33:16.515Z,5.55
2023-02-27T10:35:46.929Z,7.28
2023-02-27T10:38:27.119Z,6.85
2023-02-27T10:40:56.903Z,6.80
2023-02-27T10:43:23.851Z,6.68
2023-02-27T10:45:52.724Z,6.70
2023-02-27T10:48:20.470Z,8.10
2023-02-27T10:50:52.344Z,9.95
2023-02-27T10:53:26.573Z,8.85
2023-02-27T10:56:05.529Z,10.27
2023-02-27T10:58:38.353Z,9.90
2023-02-27T11:01:13.190Z,8.32
2023-02-27T11:03:46.525Z,8.30
2023-02-27T11:06:26.651Z,7.40
2023-02-27T11:09:22.393Z,8.45
2023-02-27T11:11:50.794Z,8.18
2023-02-27T11:14:34.657Z,9.40
2023-02-27T11:17:22.649Z,8.20
2023-02-27T11:19:51.863Z,8.40
2023-02-27T11:22:25.103Z,6.47
2023-02-27T11:24:55.870Z,5.15
2023-02-27T11:27:29.466Z,5.13
2023-02-27T11:30:00.637Z,5.73
2023-02-27T11:32:51.457Z,7.32
2023-02-27T11:35:21.529Z,7.18
2023-02-27T11:37:52.978Z,11.15
2023-02-27T11:40:53.974Z,13.23
2023-02-27T11:43:34.403Z,8.23
2023-02-27T11:46:44.839Z,9.30
2023-02-27T11:49:40.086Z,8.82
2023-02-27T11:52:18.661Z,10.07
2023-02-27T11:54:59.994Z,9.20
2023-02-27T11:57:42.514Z,9.20
2023-02-27T12:01:00.404Z,5.18
2023-02-27T12:04:12.506Z,8.40
2023-02-27T12:06:51.974Z,6.80
2023-02-27T12:09:34.474Z,6.15
2023-02-27T12:12:06.313Z,6.28
2023-02-27T12:15:14.170Z,6.00
2023-02-27T12:17:46.733Z,6.90
2023-02-27T12:21:06.790Z,7.05
2023-02-27T12:24:26.704Z,9.38
2023-02-27T12:27:06.547Z,10.32
2023-02-27T12:29:41.991Z,7.57
2023-02-27T12:32:18.743Z,6.05
2023-02-27T12:34:59.740Z,3.85
2023-02-27T12:37:33.679Z,4.93
2023-02-27T12:40:20.038Z,4.32
2023-02-27T12:43:04.311Z,6.22
2023-02-27T12:45:42.922Z,5.20
2023-02-27T12:48:23.395Z,5.32
2023-02-27T12:51:12.628Z,4.82
2023-02-27T13:00:20.631Z,6.38
2023-02-27T13:03:13.006Z,7.55
2023-02-27T13:05:54.634Z,6.05
2023-02-27T13:08:57.969Z,10.65
2023-02-27T13:12:04.114Z,4.75
2023-02-27T13:14:46.732Z,5.35
2023-02-27T13:17:27.081Z,5.20
2023-02-27T13:20:33.263Z,5.97
2023-02-27T13:23:23.880Z,6.20
2023-02-27T13:25:55.561Z,11.85
2023-02-27T13:28:28.166Z,6.82
2023-02-27T13:31:27.421Z,8.40
2023-02-27T13:34:10.922Z,7.05
2023-02-27T13:36:45.225Z,7.50
2023-02-27T13:39:49.314Z,3.90
2023-02-27T13:42:28.239Z,5.72
2023-02-27T13:44:57.006Z,4.60
2023-02-27T13:47:29.729Z,4.47
2023-02-27T13:50:01.970Z,4.15
2023-02-27T13:52:40.734Z,4.90
2023-02-27T13:55:36.973Z,7.32
2023-02-27T13:58:07.831Z,8.07
2023-02-27T14:00:38.522Z,5.90
2023-02-27T14:03:25.963Z,12.60
2023-02-27T14:05:56.219Z,5.28
2023-02-27T14:08:28.060Z,4.40
2023-02-27T14:11:30.441Z,8.25
2023-02-27T14:14:01.845Z,5.10
2023-02-27T14:16:37.799Z,3.30
2023-02-27T14:19:17.260Z,11.98
2023-02-27T14:21:52.588Z,9.60
2023-02-27T14:24:22.998Z,8.05
2023-02-27T14:26:58.705Z,9.27
2023-02-27T14:29:31.521Z,9.45
2023-02-27T14:32:17.332Z,8.20
2023-02-27T14:34:44.141Z,11.73
2023-02-27T14:37:19.854Z,9.43
2023-02-27T14:39:51.840Z,7.25
2023-02-27T14:42:37.843Z,8.68
2023-02-27T14:45:12.446Z,9.85
2023-02-27T14:47:40.798Z,7.43
2023-02-27T14:50:31.291Z,6.40
2023-02-27T14:53:04.350Z,5.55
2023-02-27T14:55:36.066Z,7.22
2023-02-27T14:58:24.058Z,10.30
2023-02-27T15:01:05.285Z,6.00
2023-02-27T15:03:46.340Z,6.53
2023-02-27T15:06:20.990Z,7.95
2023-02-27T15:08:54.009Z,7.95
2023-02-27T15:11:25.009Z,14.77
2023-02-27T15:13:58.563Z,8.20
2023-02-27T15:16:25.245Z,7.70
2023-02-27T15:19:03.203Z,6.65
2023-02-27T15:21:37.045Z,6.20
2023-02-27T15:24:09.167Z,5.20
2023-02-27T15:26:39.596Z,17.00
2023-02-27T15:29:08.581Z,5.88
2023-02-27T15:31:39.089Z,5.22
2023-02-27T15:34:13.298Z,6.93
2023-02-27T15:36:46.879Z,6.47
2023-02-27T15:39:25.482Z,7.43
2023-02-27T15:41:59.357Z,7.32
2023-02-27T15:44:58.870Z,6.03
2023-02-27T15:47:33.290Z,6.53
2023-02-27T15:53:04.271Z,6.32
2023-02-27T15:55:34.370Z,7.15
2023-02-27T15:58:19.356Z,6.88
2023-02-27T16:00:51.920Z,7.25
2023-02-27T16:03:22.980Z,8.98
2023-02-27T16:05:53.239Z,8.55
2023-02-27T16:08:21.285Z,9.80
2023-02-27T16:10:48.495Z,12.80
2023-02-27T16:13:27.748Z,12.90
2023-02-27T16:16:50.649Z,10.70
2023-02-27T16:19:30.707Z,18.83
2023-02-27T16:22:15.551Z,15.85
2023-02-27T16:27:37.737Z,15.27
2023-02-27T16:30:11.117Z,9.38
2023-02-27T16:32:44.189Z,14.07
2023-02-27T16:35:24.606Z,11.35
2023-02-27T16:37:52.979Z,13.25
2023-02-27T16:40:25.201Z,12.73
2023-02-27T16:42:56.047Z,11.30
2023-02-27T16:45:25.429Z,13.43
2023-02-27T16:47:55.177Z,15.75
2023-02-27T16:50:35.057Z,15.02
2023-02-27T16:53:01.694Z,10.70
2023-02-27T16:55:28.405Z,12.38
2023-02-27T16:57:55.076Z,8.38
2023-02-27T17:00:22.819Z,6.05
2023-02-27T17:02:49.806Z,5.35
2023-02-27T17:05:19.633Z,7.88
2023-02-27T17:07:53.885Z,9.13
2023-02-27T17:10:25.595Z,6.07
2023-02-27T17:12:52.985Z,6.95
2023-02-27T17:15:21.416Z,7.45
2023-02-27T17:17:54.220Z,8.52
2023-02-27T17:20:43.752Z,8.93
2023-02-27T17:23:14.534Z,10.18
2023-02-27T17:25:56.336Z,11.55
2023-02-27T17:28:24.148Z,9.45
2023-02-27T17:30:51.028Z,11.85
2023-02-27T17:33:19.395Z,8.38
2023-02-27T17:35:46.168Z,7.43
2023-02-27T17:38:14.910Z,9.23
2023-02-27T17:40:43.559Z,8.52
2023-02-27T17:43:10.833Z,8.93
2023-02-27T17:45:38.574Z,8.93
2023-02-27T17:48:06.523Z,9.35
2023-02-27T17:50:35.884Z,8.30
2023-02-27T17:53:02.710Z,8.80
2023-02-27T17:55:47.611Z,11.93
2023-02-27T17:58:31.069Z,9.75
2023-02-27T18:01:21.794Z,10.25
2023-02-27T18:03:51.025Z,12.27
2023-02-27T18:06:23.478Z,11.65
2023-02-27T18:08:51.523Z,11.68
2023-02-27T18:11:20.343Z,11.43
2023-02-27T18:13:47.988Z,14.90
2023-02-27T18:16:16.297Z,11.50
2023-02-27T18:18:43.606Z,10.45
2023-02-27T18:21:22.899Z,11.75
2023-02-27T18:23:51.687Z,11.48
2023-02-27T18:26:30.580Z,11.60
2023-02-27T18:29:04.016Z,13.30
2023-02-27T18:31:38.311Z,13.88
2023-02-27T18:34:05.958Z,15.02
2023-02-27T18:36:37.043Z,15.63
2023-02-27T18:39:05.122Z,15.60
2023-02-27T18:41:37.994Z,15.55
2023-02-27T18:44:23.650Z,18.48
2023-02-27T18:46:53.420Z,19.02
2023-02-27T18:49:20.134Z,18.30
2023-02-27T18:51:49.910Z,19.27
2023-02-27T18:54:23.957Z,22.33
2023-02-27T18:57:13.022Z,18.23
2023-02-27T18:59:48.501Z,18.25
2023-02-27T19:05:02.830Z,14.80
2023-02-27T19:07:32.701Z,12.07
2023-02-27T19:10:01.935Z,12.10
2023-02-27T19:12:31.008Z,13.15
2023-02-27T19:15:00.580Z,13.63
2023-02-27T19:17:37.325Z,15.77
2023-02-27T19:20:08.735Z,15.05
2023-02-27T19:22:38.485Z,14.05
2023-02-27T19:25:05.599Z,18.85
2023-02-27T19:27:33.009Z,13.55
2023-02-27T19:30:12.593Z,13.88
2023-02-27T19:32:44.422Z,16.20
2023-02-27T19:35:17.528Z,15.88
2023-02-27T19:37:59.466Z,14.93
2023-02-27T19:40:32.108Z,24.13
2023-02-27T19:43:06.640Z,28.65
2023-02-27T19:45:43.547Z,25.92
2023-02-27T19:48:24.481Z,21.10
2023-02-27T19:50:52.330Z,17.45
2023-02-27T19:53:19.464Z,16.55
2023-02-27T19:55:55.989Z,16.08
2023-02-27T19:58:40.155Z,18.02
2023-02-27T20:01:13.764Z,17.75
2023-02-27T20:03:43.490Z,12.27
2023-02-27T20:06:23.864Z,16.92
2023-02-27T20:08:55.678Z,11.85
2023-02-27T20:11:22.384Z,14.45
2023-02-27T20:13:54.069Z,10.55
2023-02-27T20:16:31.098Z,10.43
2023-02-27T20:19:01.186Z,9.95
2023-02-27T20:21:30.846Z,10.20
2023-02-27T20:23:58.362Z,12.68
2023-02-27T20:26:32.290Z,10.70
2023-02-27T20:29:05.702Z,11.10
2023-02-27T20:31:36.104Z,11.48
2023-02-27T20:34:08.631Z,12.35
2023-02-27T20:36:39.481Z,10.85
2023-02-27T20:39:12.078Z,11.43
2023-02-27T20:41:42.818Z,11.18
2023-02-27T20:44:10.989Z,12.00
2023-02-27T20:46:48.908Z,11.18
2023-02-27T20:49:19.108Z,11.05
2023-02-27T20:51:46.051Z,10.75
2023-02-27T20:54:23.011Z,9.98
2023-02-27T20:56:54.476Z,8.40
2023-02-27T20:59:27.573Z,9.85
2023-02-27T21:01:57.412Z,10.15
2023-02-27T21:04:42.614Z,7.97
2023-02-27T21:07:15.358Z,9.48
2023-02-27T21:09:42.948Z,10.27
2023-02-27T21:12:10.047Z,8.35
2023-02-27T21:14:49.918Z,7.10
2023-02-27T21:17:16.586Z,9.52
2023-02-27T21:19:46.197Z,10.45
2023-02-27T21:22:17.322Z,10.75
2023-02-27T21:24:43.995Z,8.55
2023-02-27T21:27:13.524Z,7.93
2023-02-27T21:29:40.256Z,7.47
2023-02-27T21:32:09.239Z,7.03
2023-02-27T21:35:38.214Z,8.40
2023-02-27T21:38:05.450Z,9.13
2023-02-27T21:40:33.673Z,8.45
2023-02-27T21:43:01.432Z,8.05
2023-02-27T21:45:28.173Z,11.10
2023-02-27T21:48:03.569Z,9.93
2023-02-27T21:50:39.399Z,10.02
2023-02-27T21:53:10.492Z,8.85
2023-02-27T21:55:39.408Z,11.30
2023-02-27T21:58:10.298Z,10.10
2023-02-27T22:00:39.962Z,9.13
2023-02-27T22:03:09.126Z,10.00
2023-02-27T22:05:43.218Z,11.05
2023-02-27T22:08:10.437Z,9.30
2023-02-27T22:10:50.150Z,11.15
2023-02-27T22:13:16.789Z,10.80
2023-02-27T22:15:43.432Z,10.57
2023-02-27T22:18:10.063Z,9.68
2023-02-27T22:20:41.163Z,11.02
2023-02-27T22:23:08.472Z,14.02
2023-02-27T22:25:40.563Z,11.65
2023-02-27T22:28:07.535Z,9.63
2023-02-27T22:30:37.291Z,9.45
2023-02-27T22:33:04.044Z,11.63
2023-02-27T22:35:35.643Z,12.80
2023-02-27T22:38:10.983Z,11.05
2023-02-27T22:40:42.723Z,8.75
2023-02-27T22:43:11.279Z,9.30
2023-02-27T22:45:47.896Z,8.25
2023-02-27T22:48:14.595Z,10.50
2023-02-27T22:50:43.608Z,14.32
2023-02-27T22:53:10.314Z,12.27
2023-02-27T22:55:36.935Z,11.82
2023-02-27T22:58:03.560Z,11.45
2023-02-27T23:00:34.708Z,11.52
2023-02-27T23:03:01.289Z,9.77
2023-02-27T23:05:30.078Z,10.35
2023-02-27T23:07:59.157Z,10.70
2023-02-27T23:10:29.780Z,10.35
2023-02-27T23:12:56.454Z,9.32
2023-02-27T23:15:23.088Z,9.25
2023-02-27T23:17:58.462Z,10.23
2023-02-27T23:20:27.652Z,9.50
2023-02-27T23:22:56.150Z,10.60
2023-02-27T23:25:23.884Z,9.32
2023-02-27T23:27:53.405Z,10.20
2023-02-27T23:30:22.855Z,12.00
2023-02-27T23:32:51.020Z,11.70
2023-02-27T23:35:22.947Z,12.23
2023-02-27T23:37:55.765Z,11.68
2023-02-27T23:40:26.861Z,12.32
2023-02-27T23:43:13.114Z,13.35
2023-02-27T23:45:42.049Z,11.95
2023-02-27T23:48:09.325Z,12.18
2023-02-27T23:50:42.037Z,15.15
2023-02-27T23:53:10.374Z,19.08
2023-02-27T23:55:37.823Z,16.55
2023-02-27T23:58:09.793Z,16.85
